Aviation Digital Data Service (ADDS)

Output produced by METARs form (1306 UTC 23 July 2016)
found at http://aviationweather.gov/adds/metars/
 
KCAK 231129Z 2312/2412 VRB03KT 4SM BR FEW004 SCT040 
     TEMPO 2312/2314 2SM BR 
     FM231400 28005KT P6SM SKC 
     FM240800 VRB03KT 4SM BR SKC